Detall de PIREP

Printer-friendly versionPDF version

[2013/02/08 10:09:00]
Flight IATA:CT2114
Pilot Number:042
Company ICAO:CAT
Aircraft Type:B738/F
PAX:63
Departing Airport: LEVC
Destination Airport: LEXJ
Alternate Airport:LEMD
Online: VATSIM
Route:CENTA A33 PRADO/N0426F340 UN733 CJN DCT RBO UN867 BLV
Flight Level:F340
No Slew and time accel
No pause
Crash detect
Detect pilot in Cockpit between each 30 and 45 minutes
10:09 Zero fuel Weight: 115601 Lbs, Fuel Weight: 46053 Lbs
10:09 VATSIM:LEVC 081000Z 23006KT 9999 FEW040 10/M02 Q1016 NOSIG
10:09 VATSIM:LEXJ 081000Z 32018G34KT 290V010 9999 SCT030 BKN048 09/05 Q1020
10:09 VOICE CATALONIAN
10:19 Parking Brakes off
10:23 Take-off
10:23 Take off Weight: 160979 Lbs
10:23 Wind: 213º @ 006 Knots Heading: 294º
10:23 POS N39º 29´ 39´´ W000º 29´ 42´´
10:23 Gear Up: 178 Knots
10:23 Flaps:5 at 178 Knots
10:23 Flaps:4 at 179 Knots
10:23 Flaps:3 at 187 Knots
10:24 Flaps:2 at 170 Knots
10:25 Flaps:1 at 183 Knots
10:25 Flaps:0 at 227 Knots
10:38 Wind:308º@041 Knots Heading: 299º Ground Speed: 394 Knots Altitude 25098 ft
10:44 TOC
10:44 Fuel Weight: 41358 Lb
10:44 TOD
10:44 Fuel Weight: 41357 Lb
10:44 TOC
10:44 Fuel Weight: 41345 Lb
10:53 Wind:292º@076 Knots Heading: 357º Ground Speed: 424 Knots Altitude 34130 ft
11:01 TOD
11:01 Fuel Weight: 39589 Lb
11:08 Wind:315º@041 Knots Heading: 353º Ground Speed: 352 Knots Altitude 22089 ft
11:18 Flaps:1 at 246 Knots
11:19 Flaps:2 at 228 Knots
11:19 Flaps:3 at 210 Knots
11:19 Flaps:4 at 187 Knots
11:21 Gear Down: 179 Knots
11:21 Flaps:5 at 179 Knots
11:21 Flaps:6 at 178 Knots
11:21 Flaps:8 at 174 Knots
11:23 Wind:213º@007 Knots Heading: 287º Ground Speed: 144 Knots Altitude 994 ft
11:24 TouchDown:Rate -311 ft/min Speed: 127 Knots
11:24 VATSIM:LEXJ 081100Z 34017G28KT 300V030 9999 -RA SCT020 BKN036 08/06 Q1021
11:24 Land
11:24 Wind:211º@007 Knots
11:24 Heading: 288º
11:24 Flight Duration: 01:01
11:24 Landing Weight: 153920 Lbs
11:24 POS N43º 25´ 44´´ W003º 49´ 38´´
11:29 Parking brakes on
11:29 Block to Block Duration: 01:10
11:29 Final Fuel: 37870 Lbls
11:29 Spent Fuel: 8183 Lbls
11:29 Flight Length: 253 NM
11:29 TOD Land Length: 115 NM

Exportar CSV

Powered by Drupal - Modified by Danger4k